sensor_id;sensor_type;location;lat;lon;timestamp;pressure;altitude;pressure_sealevel;temperature;humidity
18323;BME280;9287;49.456;11.064;2023-05-24T00:00:12;98425.06;;;12.86;100.00
18323;BME280;9287;49.456;11.064;2023-05-24T00:02:41;98427.47;;;12.87;100.00
18323;BME280;9287;49.456;11.064;2023-05-24T00:05:12;98428.69;;;12.90;100.00
18323;BME280;9287;49.456;11.064;2023-05-24T00:07:43;98422.63;;;12.81;100.00
18323;BME280;9287;49.456;11.064;2023-05-24T00:10:12;98426.34;;;12.73;100.00
18323;BME280;9287;49.456;11.064;2023-05-24T00:12:41;98427.03;;;12.70;100.00
18323;BME280;9287;49.456;11.064;2023-05-24T00:15:12;98415.94;;;12.63;100.00
18323;BME280;9287;49.456;11.064;2023-05-24T00:17:42;98419.81;;;12.62;100.00
18323;BME280;9287;49.456;11.064;2023-05-24T00:20:11;98423.00;;;12.64;100.00
18323;BME280;9287;49.456;11.064;2023-05-24T00:22:40;98423.72;;;12.61;100.00
18323;BME280;9287;49.456;11.064;2023-05-24T00:25:08;98416.78;;;12.67;100.00
18323;BME280;9287;49.456;11.064;2023-05-24T00:27:36;98411.25;;;12.63;100.00
18323;BME280;9287;49.456;11.064;2023-05-24T00:30:05;98411.16;;;12.60;100.00
18323;BME280;9287;49.456;11.064;2023-05-24T00:32:35;98407.28;;;12.61;100.00
18323;BME280;9287;49.456;11.064;2023-05-24T00:35:04;98405.59;;;12.56;100.00
18323;BME280;9287;49.456;11.064;2023-05-24T00:37:32;98405.50;;;12.52;100.00
18323;BME280;9287;49.456;11.064;2023-05-24T00:40:00;98404.09;;;12.59;100.00
18323;BME280;9287;49.456;11.064;2023-05-24T00:42:32;98400.03;;;12.52;100.00
18323;BME280;9287;49.456;11.064;2023-05-24T00:45:00;98401.63;;;12.53;100.00
18323;BME280;9287;49.456;11.064;2023-05-24T00:47:28;98392.44;;;12.62;100.00
18323;BME280;9287;49.456;11.064;2023-05-24T00:49:57;98402.31;;;12.50;100.00
18323;BME280;9287;49.456;11.064;2023-05-24T00:52:26;98396.41;;;12.33;100.00
18323;BME280;9287;49.456;11.064;2023-05-24T00:54:54;98399.59;;;12.35;100.00
18323;BME280;9287;49.456;11.064;2023-05-24T00:57:22;98403.38;;;12.30;100.00
18323;BME280;9287;49.456;11.064;2023-05-24T00:59:50;98402.06;;;12.24;100.00
18323;BME280;9287;49.456;11.064;2023-05-24T01:02:18;98402.69;;;12.33;100.00
18323;BME280;9287;49.456;11.064;2023-05-24T01:04:46;98408.34;;;12.40;100.00
18323;BME280;9287;49.456;11.064;2023-05-24T01:07:21;98400.13;;;12.25;100.00
18323;BME280;9287;49.456;11.064;2023-05-24T01:10:03;98402.69;;;12.33;100.00
18323;BME280;9287;49.456;11.064;2023-05-24T01:12:40;98404.81;;;12.24;100.00
18323;BME280;9287;49.456;11.064;2023-05-24T01:15:19;98400.03;;;12.21;100.00
18323;BME280;9287;49.456;11.064;2023-05-24T01:17:53;98392.97;;;12.20;100.00
18323;BME280;9287;49.456;11.064;2023-05-24T01:20:29;98400.19;;;12.12;100.00
18323;BME280;9287;49.456;11.064;2023-05-24T01:23:27;98392.59;;;12.06;100.00
18323;BME280;9287;49.456;11.064;2023-05-24T01:26:21;98394.53;;;12.05;100.00
18323;BME280;9287;49.456;11.064;2023-05-24T01:28:54;98390.81;;;11.98;100.00
18323;BME280;9287;49.456;11.064;2023-05-24T01:31:22;98394.63;;;11.93;100.00
18323;BME280;9287;49.456;11.064;2023-05-24T01:33:50;98391.59;;;11.82;100.00
18323;BME280;9287;49.456;11.064;2023-05-24T01:36:18;98394.44;;;11.86;100.00
18323;BME280;9287;49.456;11.064;2023-05-24T01:38:47;98395.03;;;11.79;100.00
18323;BME280;9287;49.456;11.064;2023-05-24T01:41:26;98394.53;;;11.90;100.00
18323;BME280;9287;49.456;11.064;2023-05-24T01:44:04;98398.69;;;11.99;100.00
18323;BME280;9287;49.456;11.064;2023-05-24T01:46:35;98397.09;;;11.98;100.00
18323;BME280;9287;49.456;11.064;2023-05-24T01:49:20;98399.81;;;11.82;100.00
18323;BME280;9287;49.456;11.064;2023-05-24T01:51:51;98391.16;;;11.80;100.00
18323;BME280;9287;49.456;11.064;2023-05-24T01:54:22;98395.22;;;11.87;100.00
18323;BME280;9287;49.456;11.064;2023-05-24T01:56:53;98392.16;;;11.88;100.00
18323;BME280;9287;49.456;11.064;2023-05-24T01:59:23;98399.09;;;11.85;100.00
18323;BME280;9287;49.456;11.064;2023-05-24T02:01:53;98396.03;;;11.87;100.00
18323;BME280;9287;49.456;11.064;2023-05-24T02:04:22;98395.22;;;11.87;100.00
18323;BME280;9287;49.456;11.064;2023-05-24T02:06:52;98402.09;;;11.80;100.00
18323;BME280;9287;49.456;11.064;2023-05-24T02:09:20;98396.53;;;11.77;100.00
18323;BME280;9287;49.456;11.064;2023-05-24T02:11:48;98400.94;;;11.54;100.00
18323;BME280;9287;49.456;11.064;2023-05-24T02:14:17;98401.50;;;11.59;100.00
18323;BME280;9287;49.456;11.064;2023-05-24T02:16:47;98405.66;;;11.41;100.00
18323;BME280;9287;49.456;11.064;2023-05-24T02:19:16;98401.56;;;11.35;100.00
18323;BME280;9287;49.456;11.064;2023-05-24T02:21:45;98406.09;;;11.43;100.00
18323;BME280;9287;49.456;11.064;2023-05-24T02:24:15;98409.84;;;11.50;100.00
18323;BME280;9287;49.456;11.064;2023-05-24T02:26:44;98412.72;;;11.42;100.00
18323;BME280;9287;49.456;11.064;2023-05-24T02:29:12;98407.50;;;11.37;100.00
18323;BME280;9287;49.456;11.064;2023-05-24T02:31:40;98410.94;;;11.34;100.00
18323;BME280;9287;49.456;11.064;2023-05-24T02:34:09;98412.31;;;11.28;100.00
18323;BME280;9287;49.456;11.064;2023-05-24T02:36:37;98408.44;;;11.29;100.00
18323;BME280;9287;49.456;11.064;2023-05-24T02:39:05;98409.34;;;11.33;100.00
18323;BME280;9287;49.456;11.064;2023-05-24T02:41:33;98414.91;;;11.36;99.70
18323;BME280;9287;49.456;11.064;2023-05-24T02:44:00;98397.94;;;11.31;99.29
18323;BME280;9287;49.456;11.064;2023-05-24T02:46:29;98403.28;;;11.39;98.72
18323;BME280;9287;49.456;11.064;2023-05-24T02:48:57;98397.59;;;11.32;98.65
18323;BME280;9287;49.456;11.064;2023-05-24T02:51:26;98398.41;;;11.33;98.47
18323;BME280;9287;49.456;11.064;2023-05-24T02:53:54;98396.81;;;11.32;97.88
18323;BME280;9287;49.456;11.064;2023-05-24T02:56:24;98404.13;;;11.15;95.29
18323;BME280;9287;49.456;11.064;2023-05-24T02:58:53;98410.50;;;11.20;94.85
18323;BME280;9287;49.456;11.064;2023-05-24T03:01:21;98400.91;;;11.38;94.34
18323;BME280;9287;49.456;11.064;2023-05-24T03:03:49;98399.75;;;11.39;93.66
18323;BME280;9287;49.456;11.064;2023-05-24T03:06:18;98409.03;;;11.50;94.08
18323;BME280;9287;49.456;11.064;2023-05-24T03:08:48;98414.69;;;11.29;93.88
18323;BME280;9287;49.456;11.064;2023-05-24T03:11:16;98421.91;;;11.49;94.15
18323;BME280;9287;49.456;11.064;2023-05-24T03:13:47;98415.00;;;11.40;93.79
18323;BME280;9287;49.456;11.064;2023-05-24T03:16:16;98420.25;;;11.33;94.76
18323;BME280;9287;49.456;11.064;2023-05-24T03:18:45;98410.47;;;11.32;94.57
18323;BME280;9287;49.456;11.064;2023-05-24T03:21:19;98420.03;;;11.26;95.85
18323;BME280;9287;49.456;11.064;2023-05-24T03:23:50;98425.63;;;11.29;96.64
18323;BME280;9287;49.456;11.064;2023-05-24T03:26:18;98420.53;;;11.15;97.68
18323;BME280;9287;49.456;11.064;2023-05-24T03:28:46;98413.13;;;11.16;98.51
18323;BME280;9287;49.456;11.064;2023-05-24T03:31:15;98413.00;;;11.25;98.45
18323;BME280;9287;49.456;11.064;2023-05-24T03:33:47;98420.16;;;11.29;99.72
18323;BME280;9287;49.456;11.064;2023-05-24T03:36:17;98421.44;;;11.20;100.00
18323;BME280;9287;49.456;11.064;2023-05-24T03:38:48;98418.03;;;11.23;100.00
18323;BME280;9287;49.456;11.064;2023-05-24T03:41:17;98414.84;;;11.08;100.00
18323;BME280;9287;49.456;11.064;2023-05-24T03:43:45;98416.66;;;11.16;100.00
18323;BME280;9287;49.456;11.064;2023-05-24T03:46:13;98419.44;;;11.04;100.00
18323;BME280;9287;49.456;11.064;2023-05-24T03:48:41;98418.97;;;11.02;100.00
18323;BME280;9287;49.456;11.064;2023-05-24T03:51:09;98414.16;;;11.11;100.00
18323;BME280;9287;49.456;11.064;2023-05-24T03:53:37;98416.94;;;10.99;100.00
18323;BME280;9287;49.456;11.064;2023-05-24T03:56:06;98426.22;;;11.10;100.00
18323;BME280;9287;49.456;11.064;2023-05-24T03:58:37;98416.66;;;11.16;100.00
18323;BME280;9287;49.456;11.064;2023-05-24T04:01:06;98420.31;;;11.08;100.00
18323;BME280;9287;49.456;11.064;2023-05-24T04:03:41;98419.97;;;11.10;100.00
18323;BME280;9287;49.456;11.064;2023-05-24T04:06:18;98425.78;;;11.08;100.00
18323;BME280;9287;49.456;11.064;2023-05-24T04:08:49;98426.47;;;11.18;100.00
18323;BME280;9287;49.456;11.064;2023-05-24T04:11:19;98428.09;;;11.06;100.00
18323;BME280;9287;49.456;11.064;2023-05-24T04:13:52;98434.25;;;11.03;100.00
18323;BME280;9287;49.456;11.064;2023-05-24T04:16:22;98434.69;;;11.05;100.00
18323;BME280;9287;49.456;11.064;2023-05-24T04:18:52;98429.94;;;10.90;100.00
18323;BME280;9287;49.456;11.064;2023-05-24T04:21:22;98432.88;;;10.85;100.00
18323;BME280;9287;49.456;11.064;2023-05-24T04:23:51;98426.03;;;10.91;100.00
18323;BME280;9287;49.456;11.064;2023-05-24T04:26:19;98425.59;;;11.01;100.00
18323;BME280;9287;49.456;11.064;2023-05-24T04:28:48;98428.78;;;11.03;100.00
18323;BME280;9287;49.456;11.064;2023-05-24T04:31:20;98439.66;;;11.15;100.00
18323;BME280;9287;49.456;11.064;2023-05-24T04:33:47;98434.44;;;11.10;100.00
18323;BME280;9287;49.456;11.064;2023-05-24T04:36:17;98432.16;;;11.12;100.00
18323;BME280;9287;49.456;11.064;2023-05-24T04:38:47;98431.59;;;11.19;100.00
18323;BME280;9287;49.456;11.064;2023-05-24T04:41:17;98432.56;;;11.27;100.00
18323;BME280;9287;49.456;11.064;2023-05-24T04:43:45;98433.06;;;11.16;100.00
18323;BME280;9287;49.456;11.064;2023-05-24T04:46:13;98427.59;;;11.16;100.00
18323;BME280;9287;49.456;11.064;2023-05-24T04:48:43;98422.13;;;11.16;100.00
18323;BME280;9287;49.456;11.064;2023-05-24T04:51:12;98426.91;;;11.20;100.00
18323;BME280;9287;49.456;11.064;2023-05-24T04:53:41;98431.59;;;11.19;100.00
18323;BME280;9287;49.456;11.064;2023-05-24T04:56:11;98430.56;;;11.11;100.00
18323;BME280;9287;49.456;11.064;2023-05-24T04:58:42;98427.97;;;11.03;100.00
18323;BME280;9287;49.456;11.064;2023-05-24T05:01:13;98428.09;;;11.06;100.00
18323;BME280;9287;49.456;11.064;2023-05-24T05:03:42;98423.94;;;11.25;100.00
18323;BME280;9287;49.456;11.064;2023-05-24T05:06:13;98428.13;;;11.34;100.00
18323;BME280;9287;49.456;11.064;2023-05-24T05:08:41;98423.94;;;11.25;100.00
18323;BME280;9287;49.456;11.064;2023-05-24T05:11:12;98435.47;;;11.46;100.00
18323;BME280;9287;49.456;11.064;2023-05-24T05:13:41;98420.75;;;11.23;100.00
18323;BME280;9287;49.456;11.064;2023-05-24T05:16:09;98431.31;;;11.36;100.00
18323;BME280;9287;49.456;11.064;2023-05-24T05:18:38;98427.84;;;11.51;100.00
18323;BME280;9287;49.456;11.064;2023-05-24T05:21:08;98435.47;;;11.58;100.00
18323;BME280;9287;49.456;11.064;2023-05-24T05:23:37;98431.59;;;11.47;99.22
18323;BME280;9287;49.456;11.064;2023-05-24T05:26:05;98436.78;;;11.36;99.04
18323;BME280;9287;49.456;11.064;2023-05-24T05:28:34;98437.75;;;11.16;98.71
18323;BME280;9287;49.456;11.064;2023-05-24T05:31:05;98439.00;;;11.19;98.57
18323;BME280;9287;49.456;11.064;2023-05-24T05:33:34;98440.75;;;11.39;99.11
18323;BME280;9287;49.456;11.064;2023-05-24T05:36:02;98438.94;;;11.31;97.32
18323;BME280;9287;49.456;11.064;2023-05-24T05:38:32;98438.66;;;11.20;97.35
18323;BME280;9287;49.456;11.064;2023-05-24T05:41:01;98444.69;;;11.13;97.88
18323;BME280;9287;49.456;11.064;2023-05-24T05:43:30;98440.50;;;11.04;98.78
18323;BME280;9287;49.456;11.064;2023-05-24T05:45:58;98434.88;;;11.25;98.98
18323;BME280;9287;49.456;11.064;2023-05-24T05:48:27;98445.53;;;11.42;96.42
18323;BME280;9287;49.456;11.064;2023-05-24T05:50:57;98445.81;;;11.25;95.69
18323;BME280;9287;49.456;11.064;2023-05-24T05:53:25;98447.38;;;11.38;95.63
18323;BME280;9287;49.456;11.064;2023-05-24T05:55:55;98443.66;;;11.58;96.19
18323;BME280;9287;49.456;11.064;2023-05-24T05:58:25;98451.91;;;11.46;93.55
18323;BME280;9287;49.456;11.064;2023-05-24T06:00:53;98457.66;;;11.16;93.08
18323;BME280;9287;49.456;11.064;2023-05-24T06:03:21;98465.22;;;11.07;93.39
18323;BME280;9287;49.456;11.064;2023-05-24T06:05:50;98462.56;;;11.11;91.79
18323;BME280;9287;49.456;11.064;2023-05-24T06:08:17;98468.38;;;10.97;93.00
18323;BME280;9287;49.456;11.064;2023-05-24T06:10:46;98472.00;;;11.13;92.03
18323;BME280;9287;49.456;11.064;2023-05-24T06:13:19;98470.31;;;11.21;92.03
18323;BME280;9287;49.456;11.064;2023-05-24T06:15:47;98469.63;;;11.12;91.88
18323;BME280;9287;49.456;11.064;2023-05-24T06:18:15;98473.59;;;11.14;91.13
18323;BME280;9287;49.456;11.064;2023-05-24T06:20:43;98467.47;;;11.18;91.62
18323;BME280;9287;49.456;11.064;2023-05-24T06:23:12;98474.06;;;10.92;92.48
18323;BME280;9287;49.456;11.064;2023-05-24T06:25:40;98474.06;;;10.92;93.36
18323;BME280;9287;49.456;11.064;2023-05-24T06:28:09;98484.78;;;11.22;91.72
18323;BME280;9287;49.456;11.064;2023-05-24T06:30:38;98480.63;;;11.28;90.79
18323;BME280;9287;49.456;11.064;2023-05-24T06:33:06;98480.66;;;11.15;90.60
18323;BME280;9287;49.456;11.064;2023-05-24T06:35:34;98482.75;;;11.06;91.17
18323;BME280;9287;49.456;11.064;2023-05-24T06:38:02;98482.75;;;11.06;91.38
18323;BME280;9287;49.456;11.064;2023-05-24T06:40:30;98488.03;;;11.27;91.18
18323;BME280;9287;49.456;11.064;2023-05-24T06:42:57;98494.78;;;11.42;88.90
18323;BME280;9287;49.456;11.064;2023-05-24T06:45:26;98495.44;;;11.39;88.54
18323;BME280;9287;49.456;11.064;2023-05-24T06:47:55;98501.13;;;11.46;88.80
18323;BME280;9287;49.456;11.064;2023-05-24T06:50:24;98492.00;;;11.54;89.22
18323;BME280;9287;49.456;11.064;2023-05-24T06:52:52;98495.91;;;11.81;89.08
18323;BME280;9287;49.456;11.064;2023-05-24T06:55:21;98496.50;;;11.22;87.17
18323;BME280;9287;49.456;11.064;2023-05-24T06:57:49;98505.03;;;11.21;88.67
18323;BME280;9287;49.456;11.064;2023-05-24T07:00:17;98511.09;;;11.02;89.00
18323;BME280;9287;49.456;11.064;2023-05-24T07:02:45;98506.28;;;11.35;89.68
18323;BME280;9287;49.456;11.064;2023-05-24T07:05:15;98506.53;;;11.70;89.66
18323;BME280;9287;49.456;11.064;2023-05-24T07:07:43;98509.03;;;11.75;85.74
18323;BME280;9287;49.456;11.064;2023-05-24T07:10:11;98504.34;;;11.88;85.51
18323;BME280;9287;49.456;11.064;2023-05-24T07:12:39;98509.41;;;12.02;84.73
18323;BME280;9287;49.456;11.064;2023-05-24T07:15:08;98513.84;;;12.06;84.41
18323;BME280;9287;49.456;11.064;2023-05-24T07:17:36;98505.19;;;11.76;85.38
18323;BME280;9287;49.456;11.064;2023-05-24T07:20:05;98515.00;;;11.53;86.11
18323;BME280;9287;49.456;11.064;2023-05-24T07:22:37;98513.53;;;11.43;86.67
18323;BME280;9287;49.456;11.064;2023-05-24T07:25:05;98517.78;;;11.29;87.14
18323;BME280;9287;49.456;11.064;2023-05-24T07:27:33;98511.50;;;11.28;87.72
18323;BME280;9287;49.456;11.064;2023-05-24T07:30:02;98518.47;;;11.26;88.66
18323;BME280;9287;49.456;11.064;2023-05-24T07:32:33;98518.69;;;11.33;89.67
18323;BME280;9287;49.456;11.064;2023-05-24T07:35:01;98510.50;;;11.21;88.84
18323;BME280;9287;49.456;11.064;2023-05-24T07:37:29;98512.00;;;11.70;86.39
18323;BME280;9287;49.456;11.064;2023-05-24T07:39:58;98518.59;;;11.81;84.97
18323;BME280;9287;49.456;11.064;2023-05-24T07:42:26;98519.22;;;12.03;82.73
18323;BME280;9287;49.456;11.064;2023-05-24T07:44:54;98520.88;;;11.79;83.43
18323;BME280;9287;49.456;11.064;2023-05-24T07:47:21;98518.84;;;11.64;84.70
18323;BME280;9287;49.456;11.064;2023-05-24T07:49:49;98529.25;;;11.46;86.31
18323;BME280;9287;49.456;11.064;2023-05-24T07:52:17;98528.88;;;11.60;86.55
18323;BME280;9287;49.456;11.064;2023-05-24T07:54:45;98521.59;;;11.64;87.19
18323;BME280;9287;49.456;11.064;2023-05-24T07:57:14;98520.47;;;11.77;85.27
18323;BME280;9287;49.456;11.064;2023-05-24T07:59:43;98512.28;;;11.53;87.08
18323;BME280;9287;49.456;11.064;2023-05-24T08:02:11;98515.19;;;11.72;87.61
18323;BME280;9287;49.456;11.064;2023-05-24T08:04:39;98521.34;;;11.81;84.67
18323;BME280;9287;49.456;11.064;2023-05-24T08:07:07;98517.22;;;11.88;85.62
18323;BME280;9287;49.456;11.064;2023-05-24T08:09:36;98517.59;;;11.74;85.24
18323;BME280;9287;49.456;11.064;2023-05-24T08:12:05;98514.69;;;11.95;85.15
18323;BME280;9287;49.456;11.064;2023-05-24T08:14:34;98519.22;;;12.03;83.77
18323;BME280;9287;49.456;11.064;2023-05-24T08:17:02;98516.31;;;11.83;83.65
18323;BME280;9287;49.456;11.064;2023-05-24T08:19:30;98518.16;;;11.79;83.59
18323;BME280;9287;49.456;11.064;2023-05-24T08:22:01;98513.84;;;12.06;84.83
18323;BME280;9287;49.456;11.064;2023-05-24T08:24:31;98522.47;;;11.80;83.92
18323;BME280;9287;49.456;11.064;2023-05-24T08:26:58;98517.72;;;11.65;84.34
18323;BME280;9287;49.456;11.064;2023-05-24T08:29:26;98521.13;;;11.62;86.11
18323;BME280;9287;49.456;11.064;2023-05-24T08:31:55;98519.38;;;11.94;87.46
18323;BME280;9287;49.456;11.064;2023-05-24T08:34:23;98534.19;;;11.93;84.43
18323;BME280;9287;49.456;11.064;2023-05-24T08:36:51;98533.38;;;12.20;86.35
18323;BME280;9287;49.456;11.064;2023-05-24T08:39:19;98535.53;;;12.27;85.17
18323;BME280;9287;49.456;11.064;2023-05-24T08:41:47;98530.31;;;12.22;83.43
18323;BME280;9287;49.456;11.064;2023-05-24T08:44:37;98537.63;;;12.18;82.75
18323;BME280;9287;49.456;11.064;2023-05-24T08:47:08;98538.97;;;12.24;82.72
18323;BME280;9287;49.456;11.064;2023-05-24T08:49:36;98537.50;;;12.42;82.96
18323;BME280;9287;49.456;11.064;2023-05-24T08:52:04;98542.28;;;12.45;81.76
18323;BME280;9287;49.456;11.064;2023-05-24T08:54:35;98536.81;;;12.45;80.71
18323;BME280;9287;49.456;11.064;2023-05-24T08:57:03;98545.66;;;12.11;83.30
18323;BME280;9287;49.456;11.064;2023-05-24T08:59:33;98542.50;;;11.97;83.59
18323;BME280;9287;49.456;11.064;2023-05-24T09:02:03;98547.66;;;12.14;87.13
18323;BME280;9287;49.456;11.064;2023-05-24T09:04:34;98542.75;;;12.19;84.57
18323;BME280;9287;49.456;11.064;2023-05-24T09:07:02;98542.19;;;12.14;85.04
18323;BME280;9287;49.456;11.064;2023-05-24T09:09:33;98546.97;;;12.17;85.00
18323;BME280;9287;49.456;11.064;2023-05-24T09:12:03;98553.88;;;12.11;83.60
18323;BME280;9287;49.456;11.064;2023-05-24T09:14:32;98556.84;;;12.06;83.32
18323;BME280;9287;49.456;11.064;2023-05-24T09:17:00;98566.19;;;12.05;82.64
18323;BME280;9287;49.456;11.064;2023-05-24T09:19:29;98555.47;;;12.12;83.80
18323;BME280;9287;49.456;11.064;2023-05-24T09:21:59;98564.00;;;12.10;83.17
18323;BME280;9287;49.456;11.064;2023-05-24T09:24:27;98560.78;;;11.80;83.99
18323;BME280;9287;49.456;11.064;2023-05-24T09:27:04;98570.66;;;11.97;83.79
18323;BME280;9287;49.456;11.064;2023-05-24T09:29:34;98569.56;;;12.14;84.40
18323;BME280;9287;49.456;11.064;2023-05-24T09:32:02;98569.25;;;12.31;83.55
18323;BME280;9287;49.456;11.064;2023-05-24T09:34:37;98565.38;;;12.32;82.33
18323;BME280;9287;49.456;11.064;2023-05-24T09:37:09;98566.84;;;12.14;81.43
18323;BME280;9287;49.456;11.064;2023-05-24T09:39:39;98574.44;;;11.93;82.95
18323;BME280;9287;49.456;11.064;2023-05-24T09:42:13;98559.53;;;11.66;84.95
18323;BME280;9287;49.456;11.064;2023-05-24T09:44:42;98561.69;;;11.84;85.72
18323;BME280;9287;49.456;11.064;2023-05-24T09:47:09;98561.94;;;11.67;84.93
18323;BME280;9287;49.456;11.064;2023-05-24T09:49:38;98569.56;;;11.86;84.52
18323;BME280;9287;49.456;11.064;2023-05-24T09:52:07;98567.47;;;11.95;83.41
18323;BME280;9287;49.456;11.064;2023-05-24T09:54:35;98557.06;;;12.01;82.23
18323;BME280;9287;49.456;11.064;2023-05-24T09:57:04;98558.22;;;12.00;81.59
18323;BME280;9287;49.456;11.064;2023-05-24T09:59:32;98562.59;;;12.16;81.51
18323;BME280;9287;49.456;11.064;2023-05-24T10:02:07;98560.72;;;12.05;81.62
18323;BME280;9287;49.456;11.064;2023-05-24T10:04:39;98561.97;;;12.07;79.77
18323;BME280;9287;49.456;11.064;2023-05-24T10:07:10;98557.97;;;12.05;80.47
18323;BME280;9287;49.456;11.064;2023-05-24T10:09:39;98563.75;;;12.43;80.48
18323;BME280;9287;49.456;11.064;2023-05-24T10:12:07;98563.88;;;12.63;77.37
18323;BME280;9287;49.456;11.064;2023-05-24T10:14:36;98555.53;;;12.43;78.36
18323;BME280;9287;49.456;11.064;2023-05-24T10:17:07;98553.53;;;12.87;77.48
18323;BME280;9287;49.456;11.064;2023-05-24T10:19:39;98559.25;;;12.67;76.86
18323;BME280;9287;49.456;11.064;2023-05-24T10:22:08;98556.81;;;12.62;74.34
18323;BME280;9287;49.456;11.064;2023-05-24T10:24:43;98546.38;;;13.14;73.49
18323;BME280;9287;49.456;11.064;2023-05-24T10:27:14;98552.59;;;12.80;75.41
18323;BME280;9287;49.456;11.064;2023-05-24T10:29:53;98549.56;;;13.16;74.05
18323;BME280;9287;49.456;11.064;2023-05-24T10:32:27;98550.53;;;13.40;71.76
18323;BME280;9287;49.456;11.064;2023-05-24T10:34:58;98543.31;;;13.51;71.85
18323;BME280;9287;49.456;11.064;2023-05-24T10:37:27;98542.28;;;13.40;71.83
18323;BME280;9287;49.456;11.064;2023-05-24T10:39:57;98538.78;;;12.92;72.00
18323;BME280;9287;49.456;11.064;2023-05-24T10:42:25;98536.47;;;13.26;72.42
18323;BME280;9287;49.456;11.064;2023-05-24T10:44:55;98540.03;;;13.61;71.91
18323;BME280;9287;49.456;11.064;2023-05-24T10:47:25;98535.34;;;13.27;70.50
18323;BME280;9287;49.456;11.064;2023-05-24T10:49:55;98536.09;;;13.43;70.16
18323;BME280;9287;49.456;11.064;2023-05-24T10:52:33;98536.91;;;13.43;66.30
18323;BME280;9287;49.456;11.064;2023-05-24T10:55:04;98536.41;;;13.57;67.30
18323;BME280;9287;49.456;11.064;2023-05-24T10:57:33;98533.13;;;13.67;66.50
18323;BME280;9287;49.456;11.064;2023-05-24T11:00:26;98544.09;;;13.16;63.02
18323;BME280;9287;49.456;11.064;2023-05-24T11:03:04;98545.50;;;13.10;62.28
18323;BME280;9287;49.456;11.064;2023-05-24T11:05:34;98545.50;;;13.10;61.30
18323;BME280;9287;49.456;11.064;2023-05-24T11:08:05;98542.41;;;13.28;61.46
18323;BME280;9287;49.456;11.064;2023-05-24T11:10:36;98537.88;;;13.89;64.17
18323;BME280;9287;49.456;11.064;2023-05-24T11:13:06;98534.56;;;14.19;64.75
18323;BME280;9287;49.456;11.064;2023-05-24T11:15:34;98540.91;;;14.23;62.10
18323;BME280;9287;49.456;11.064;2023-05-24T11:18:15;98537.91;;;14.09;61.07
18323;BME280;9287;49.456;11.064;2023-05-24T11:20:47;98528.63;;;14.36;60.99
18323;BME280;9287;49.456;11.064;2023-05-24T11:23:15;98537.13;;;13.54;60.39
18323;BME280;9287;49.456;11.064;2023-05-24T11:25:45;98532.97;;;13.79;59.61
18323;BME280;9287;49.456;11.064;2023-05-24T11:28:13;98527.34;;;13.37;60.48
18323;BME280;9287;49.456;11.064;2023-05-24T11:30:43;98530.81;;;13.88;60.27
18323;BME280;9287;49.456;11.064;2023-05-24T11:33:15;98528.78;;;14.43;59.05
18323;BME280;9287;49.456;11.064;2023-05-24T11:35:46;98527.81;;;14.55;56.39
18323;BME280;9287;49.456;11.064;2023-05-24T11:38:15;98530.44;;;14.93;57.45
18323;BME280;9287;49.456;11.064;2023-05-24T11:40:46;98533.00;;;14.18;56.32
18323;BME280;9287;49.456;11.064;2023-05-24T11:43:18;98538.47;;;13.79;57.70
18323;BME280;9287;49.456;11.064;2023-05-24T11:45:48;98540.06;;;13.80;57.56
18323;BME280;9287;49.456;11.064;2023-05-24T11:48:18;98529.28;;;13.91;56.81
18323;BME280;9287;49.456;11.064;2023-05-24T11:50:47;98524.28;;;14.54;56.50
18323;BME280;9287;49.456;11.064;2023-05-24T11:53:17;98516.81;;;14.78;56.57
18323;BME280;9287;49.456;11.064;2023-05-24T11:55:47;98514.38;;;14.73;56.02
18323;BME280;9287;49.456;11.064;2023-05-24T11:58:21;98511.28;;;14.32;56.09
18323;BME280;9287;49.456;11.064;2023-05-24T12:00:50;98519.38;;;14.90;57.41
18323;BME280;9287;49.456;11.064;2023-05-24T12:03:18;98514.22;;;15.11;57.10
18323;BME280;9287;49.456;11.064;2023-05-24T12:05:47;98518.25;;;15.17;55.37
18323;BME280;9287;49.456;11.064;2023-05-24T12:08:15;98523.72;;;14.45;55.59
18323;BME280;9287;49.456;11.064;2023-05-24T12:10:42;98518.38;;;14.33;53.15
18323;BME280;9287;49.456;11.064;2023-05-24T12:13:22;98511.56;;;14.46;52.26
18323;BME280;9287;49.456;11.064;2023-05-24T12:15:53;98509.00;;;14.80;52.40
18323;BME280;9287;49.456;11.064;2023-05-24T12:18:24;98515.09;;;15.15;51.00
18323;BME280;9287;49.456;11.064;2023-05-24T12:20:52;98513.22;;;14.96;50.03
18323;BME280;9287;49.456;11.064;2023-05-24T12:23:23;98506.91;;;14.96;50.52
18323;BME280;9287;49.456;11.064;2023-05-24T12:25:57;98502.78;;;14.83;50.18
18323;BME280;9287;49.456;11.064;2023-05-24T12:28:26;98512.38;;;14.47;50.68
18323;BME280;9287;49.456;11.064;2023-05-24T12:30:54;98497.38;;;14.90;49.90
18323;BME280;9287;49.456;11.064;2023-05-24T12:33:22;98497.47;;;14.48;50.29
18323;BME280;9287;49.456;11.064;2023-05-24T12:35:51;98492.53;;;14.80;50.10
18323;BME280;9287;49.456;11.064;2023-05-24T12:38:19;98490.56;;;14.57;49.73
18323;BME280;9287;49.456;11.064;2023-05-24T12:40:51;98489.97;;;14.68;48.96
18323;BME280;9287;49.456;11.064;2023-05-24T12:43:39;98494.28;;;14.46;49.68
18323;BME280;9287;49.456;11.064;2023-05-24T12:46:09;98491.84;;;14.41;50.43
18323;BME280;9287;49.456;11.064;2023-05-24T12:48:39;98476.72;;;14.31;50.67
18323;BME280;9287;49.456;11.064;2023-05-24T12:51:07;98482.50;;;14.45;50.43
18323;BME280;9287;49.456;11.064;2023-05-24T12:53:35;98480.44;;;14.19;50.28
18323;BME280;9287;49.456;11.064;2023-05-24T12:56:03;98479.97;;;14.37;50.41
18323;BME280;9287;49.456;11.064;2023-05-24T12:58:31;98482.47;;;14.91;49.20
18323;BME280;9287;49.456;11.064;2023-05-24T13:01:00;98476.31;;;14.97;48.74
18323;BME280;9287;49.456;11.064;2023-05-24T13:03:28;98469.38;;;15.07;48.30
18323;BME280;9287;49.456;11.064;2023-05-24T13:05:56;98474.34;;;15.24;48.18
18323;BME280;9287;49.456;11.064;2023-05-24T13:08:24;98467.03;;;15.62;48.55
18323;BME280;9287;49.456;11.064;2023-05-24T13:10:54;98464.22;;;15.88;47.30